Frazier Park, California
Current Conditions -  °F | °C
As of 8:48 PM on Friday 24 Oct 2014 (Local Time) from KSDB Reporting Station
Clear Clear  
Wind Chill: 62°   Ceiling: Unl
Heat Index: 62°   Visibility: 10mi
Dew Point: 31°   Wind: 12mph
Humidity: 31%   Direction: 200°SSW
Pressure: 30.13"   Gusts: NA
Location:  34.82°N, 118.95°W
Report Text: KSDB 250348Z AUTO 20010KT 10SM CLR 17/M01 A3013 RMK AO2 SLP154 T01671006
Loading
Personal Weather Stations






























Interactive Weather Map
Tropical Storm Tracking
New forecast layout! Learn more

10-Day Weather Forecast

Advertisements
Track Severe Weather on mobile